sensor_id;sensor_type;location;lat;lon;timestamp;pressure;altitude;pressure_sealevel;temperature;humidity
71764;BME280;59602;52.142;5.408;2022-12-20T00:00:01;101441.75;;;7.77;94.70
71764;BME280;59602;52.142;5.408;2022-12-20T00:02:27;101447.63;;;7.79;94.85
71764;BME280;59602;52.142;5.408;2022-12-20T00:04:54;101434.78;;;7.76;94.71
71764;BME280;59602;52.142;5.408;2022-12-20T00:07:20;101432.53;;;7.78;94.32
71764;BME280;59602;52.142;5.408;2022-12-20T00:09:47;101439.06;;;7.77;94.11
71764;BME280;59602;52.142;5.408;2022-12-20T00:12:14;101434.44;;;7.77;94.40
71764;BME280;59602;52.142;5.408;2022-12-20T00:14:40;101432.19;;;7.79;94.44
71764;BME280;59602;52.142;5.408;2022-12-20T00:17:07;101437.25;;;7.81;94.12
71764;BME280;59602;52.142;5.408;2022-12-20T00:19:33;101442.66;;;7.81;94.32
71764;BME280;59602;52.142;5.408;2022-12-20T00:22:00;101440.38;;;7.83;94.04
71764;BME280;59602;52.142;5.408;2022-12-20T00:24:27;101444.00;;;7.87;94.35
71764;BME280;59602;52.142;5.408;2022-12-20T00:26:53;101450.19;;;7.87;94.18
71764;BME280;59602;52.142;5.408;2022-12-20T00:29:20;101441.28;;;7.87;93.96
71764;BME280;59602;52.142;5.408;2022-12-20T00:31:46;101437.78;;;7.86;94.30
71764;BME280;59602;52.142;5.408;2022-12-20T00:34:13;101433.94;;;7.87;94.11
71764;BME280;59602;52.142;5.408;2022-12-20T00:36:40;101430.91;;;7.89;94.07
71764;BME280;59602;52.142;5.408;2022-12-20T00:39:06;101437.28;;;7.97;94.25
71764;BME280;59602;52.142;5.408;2022-12-20T00:41:33;101430.28;;;7.96;94.17
71764;BME280;59602;52.142;5.408;2022-12-20T00:44:01;101421.03;;;7.97;94.00
71764;BME280;59602;52.142;5.408;2022-12-20T00:46:28;101431.53;;;7.98;93.98
71764;BME280;59602;52.142;5.408;2022-12-20T00:48:55;101419.66;;;8.03;93.55
71764;BME280;59602;52.142;5.408;2022-12-20T00:51:25;101424.47;;;8.09;93.74
71764;BME280;59602;52.142;5.408;2022-12-20T00:53:52;101429.53;;;8.11;93.25
71764;BME280;59602;52.142;5.408;2022-12-20T00:56:19;101443.84;;;8.11;93.58
71764;BME280;59602;52.142;5.408;2022-12-20T00:58:47;101428.75;;;8.10;93.43
71764;BME280;59602;52.142;5.408;2022-12-20T01:01:19;101438.09;;;8.13;93.18
71764;BME280;59602;52.142;5.408;2022-12-20T01:03:46;101422.97;;;8.12;92.95
71764;BME280;59602;52.142;5.408;2022-12-20T01:06:13;101425.34;;;8.14;93.08
71764;BME280;59602;52.142;5.408;2022-12-20T01:08:40;101426.91;;;8.15;92.97
71764;BME280;59602;52.142;5.408;2022-12-20T01:11:11;101431.53;;;8.14;93.38
71764;BME280;59602;52.142;5.408;2022-12-20T01:13:40;101428.38;;;8.12;93.34
71764;BME280;59602;52.142;5.408;2022-12-20T01:16:16;101416.00;;;8.11;93.47
71764;BME280;59602;52.142;5.408;2022-12-20T01:18:43;101430.41;;;8.15;93.39
71764;BME280;59602;52.142;5.408;2022-12-20T01:21:12;101426.56;;;8.16;93.55
71764;BME280;59602;52.142;5.408;2022-12-20T01:23:40;101427.34;;;8.17;93.80
71764;BME280;59602;52.142;5.408;2022-12-20T01:26:10;101429.28;;;8.16;93.96
71764;BME280;59602;52.142;5.408;2022-12-20T01:28:39;101436.34;;;8.21;94.01
71764;BME280;59602;52.142;5.408;2022-12-20T01:31:08;101424.41;;;8.22;94.57
71764;BME280;59602;52.142;5.408;2022-12-20T01:33:35;101414.34;;;8.22;94.97
71764;BME280;59602;52.142;5.408;2022-12-20T01:36:05;101415.84;;;8.20;95.07
71764;BME280;59602;52.142;5.408;2022-12-20T01:38:32;101418.09;;;8.18;95.86
71764;BME280;59602;52.142;5.408;2022-12-20T01:41:00;101408.75;;;8.15;95.54
71764;BME280;59602;52.142;5.408;2022-12-20T01:46:14;101416.78;;;8.11;96.30
71764;BME280;59602;52.142;5.408;2022-12-20T01:48:45;101405.50;;;8.09;97.28
71764;BME280;59602;52.142;5.408;2022-12-20T01:51:14;101409.81;;;8.10;97.30
71764;BME280;59602;52.142;5.408;2022-12-20T01:53:41;101402.09;;;8.13;97.54
71764;BME280;59602;52.142;5.408;2022-12-20T01:56:09;101394.31;;;8.11;97.78
71764;BME280;59602;52.142;5.408;2022-12-20T01:58:36;101413.28;;;8.11;97.88
71764;BME280;59602;52.142;5.408;2022-12-20T02:01:04;101405.16;;;8.11;98.06
71764;BME280;59602;52.142;5.408;2022-12-20T02:03:31;101386.09;;;8.07;98.15
71764;BME280;59602;52.142;5.408;2022-12-20T02:06:13;101389.16;;;8.06;98.42
71764;BME280;59602;52.142;5.408;2022-12-20T02:08:43;101384.88;;;8.05;98.52
71764;BME280;59602;52.142;5.408;2022-12-20T02:16:49;101377.09;;;8.03;99.21
71764;BME280;59602;52.142;5.408;2022-12-20T02:22:25;101367.75;;;8.01;99.08
71764;BME280;59602;52.142;5.408;2022-12-20T02:28:01;101371.50;;;7.96;99.77
71764;BME280;59602;52.142;5.408;2022-12-20T02:30:33;101367.69;;;7.97;99.63
71764;BME280;59602;52.142;5.408;2022-12-20T02:33:06;101370.03;;;7.99;99.50
71764;BME280;59602;52.142;5.408;2022-12-20T02:35:36;101373.53;;;7.99;99.75
71764;BME280;59602;52.142;5.408;2022-12-20T02:38:24;101380.50;;;8.00;99.66
71764;BME280;59602;52.142;5.408;2022-12-20T02:40:55;101374.75;;;8.02;99.80
71764;BME280;59602;52.142;5.408;2022-12-20T02:43:23;101358.50;;;8.02;99.96
71764;BME280;59602;52.142;5.408;2022-12-20T02:46:10;101356.25;;;8.04;99.93
71764;BME280;59602;52.142;5.408;2022-12-20T02:48:39;101364.38;;;8.04;100.00
71764;BME280;59602;52.142;5.408;2022-12-20T02:51:08;101351.16;;;8.02;100.00
71764;BME280;59602;52.142;5.408;2022-12-20T02:53:36;101362.34;;;8.01;100.00
71764;BME280;59602;52.142;5.408;2022-12-20T02:56:12;101353.78;;;7.99;100.00
71764;BME280;59602;52.142;5.408;2022-12-20T02:58:49;101358.06;;;8.00;100.00
71764;BME280;59602;52.142;5.408;2022-12-20T03:01:26;101350.38;;;8.02;100.00
71764;BME280;59602;52.142;5.408;2022-12-20T03:03:55;101346.88;;;8.01;100.00
71764;BME280;59602;52.142;5.408;2022-12-20T03:06:23;101348.03;;;8.00;100.00
71764;BME280;59602;52.142;5.408;2022-12-20T03:08:50;101358.41;;;7.98;100.00
71764;BME280;59602;52.142;5.408;2022-12-20T03:11:16;101341.03;;;7.99;100.00
71764;BME280;59602;52.142;5.408;2022-12-20T03:13:43;101341.44;;;8.01;100.00
71764;BME280;59602;52.142;5.408;2022-12-20T03:16:10;101336.84;;;8.02;100.00
71764;BME280;59602;52.142;5.408;2022-12-20T03:18:37;101354.59;;;7.99;100.00
71764;BME280;59602;52.142;5.408;2022-12-20T03:21:04;101354.59;;;7.99;100.00
71764;BME280;59602;52.142;5.408;2022-12-20T03:23:31;101357.28;;;7.99;100.00
71764;BME280;59602;52.142;5.408;2022-12-20T03:25:58;101335.69;;;8.03;100.00
71764;BME280;59602;52.142;5.408;2022-12-20T03:28:24;101335.69;;;8.03;100.00
71764;BME280;59602;52.142;5.408;2022-12-20T03:30:51;101344.16;;;8.01;100.00
71764;BME280;59602;52.142;5.408;2022-12-20T03:33:18;101339.56;;;8.02;100.00
71764;BME280;59602;52.142;5.408;2022-12-20T03:35:46;101333.75;;;8.03;100.00
71764;BME280;59602;52.142;5.408;2022-12-20T03:38:12;101343.56;;;8.08;100.00
71764;BME280;59602;52.142;5.408;2022-12-20T03:40:39;101343.56;;;8.08;100.00
71764;BME280;59602;52.142;5.408;2022-12-20T03:43:07;101341.66;;;8.08;100.00
71764;BME280;59602;52.142;5.408;2022-12-20T03:45:34;101338.13;;;8.08;100.00
71764;BME280;59602;52.142;5.408;2022-12-20T03:48:00;101326.97;;;8.09;100.00
71764;BME280;59602;52.142;5.408;2022-12-20T03:50:27;101327.41;;;8.11;100.00
71764;BME280;59602;52.142;5.408;2022-12-20T03:52:53;101328.56;;;8.10;100.00
71764;BME280;59602;52.142;5.408;2022-12-20T03:55:20;101324.25;;;8.09;100.00
71764;BME280;59602;52.142;5.408;2022-12-20T03:57:46;101315.34;;;8.09;100.00
71764;BME280;59602;52.142;5.408;2022-12-20T04:00:14;101318.06;;;8.09;100.00
71764;BME280;59602;52.142;5.408;2022-12-20T04:02:40;101321.09;;;8.07;100.00
71764;BME280;59602;52.142;5.408;2022-12-20T04:05:07;101311.50;;;8.10;100.00
71764;BME280;59602;52.142;5.408;2022-12-20T04:07:34;101315.00;;;8.10;100.00
71764;BME280;59602;52.142;5.408;2022-12-20T04:10:02;101305.72;;;8.11;100.00
71764;BME280;59602;52.142;5.408;2022-12-20T04:12:29;101295.34;;;8.14;100.00
71764;BME280;59602;52.142;5.408;2022-12-20T04:14:55;101301.19;;;8.16;100.00
71764;BME280;59602;52.142;5.408;2022-12-20T04:17:22;101290.34;;;8.16;100.00
71764;BME280;59602;52.142;5.408;2022-12-20T04:19:48;101309.75;;;8.18;100.00
71764;BME280;59602;52.142;5.408;2022-12-20T04:22:16;101295.00;;;8.15;100.00
71764;BME280;59602;52.142;5.408;2022-12-20T04:24:42;101293.94;;;8.20;100.00
71764;BME280;59602;52.142;5.408;2022-12-20T04:27:09;101289.03;;;8.25;100.00
71764;BME280;59602;52.142;5.408;2022-12-20T04:29:35;101284.75;;;8.24;100.00
71764;BME280;59602;52.142;5.408;2022-12-20T04:32:02;101285.97;;;8.27;100.00
71764;BME280;59602;52.142;5.408;2022-12-20T04:34:29;101279.78;;;8.26;99.89
71764;BME280;59602;52.142;5.408;2022-12-20T04:36:55;101281.34;;;8.27;100.00
71764;BME280;59602;52.142;5.408;2022-12-20T04:39:22;101274.84;;;8.32;100.00
71764;BME280;59602;52.142;5.408;2022-12-20T04:41:49;101281.06;;;8.32;99.95
71764;BME280;59602;52.142;5.408;2022-12-20T04:44:15;101281.50;;;8.35;99.74
71764;BME280;59602;52.142;5.408;2022-12-20T04:46:42;101290.06;;;8.37;99.82
71764;BME280;59602;52.142;5.408;2022-12-20T04:49:08;101283.50;;;8.38;99.89
71764;BME280;59602;52.142;5.408;2022-12-20T04:51:35;101292.41;;;8.38;99.68
71764;BME280;59602;52.142;5.408;2022-12-20T04:54:02;101290.59;;;8.42;99.65
71764;BME280;59602;52.142;5.408;2022-12-20T04:56:28;101287.19;;;8.45;99.60
71764;BME280;59602;52.142;5.408;2022-12-20T04:58:57;101285.34;;;8.49;99.46
71764;BME280;59602;52.142;5.408;2022-12-20T05:01:24;101281.56;;;8.54;99.63
71764;BME280;59602;52.142;5.408;2022-12-20T05:03:51;101286.63;;;8.56;99.41
71764;BME280;59602;52.142;5.408;2022-12-20T05:06:18;101280.44;;;8.55;99.39
71764;BME280;59602;52.142;5.408;2022-12-20T05:08:45;101276.22;;;8.58;99.70
71764;BME280;59602;52.142;5.408;2022-12-20T05:11:12;101275.06;;;8.59;100.00
71764;BME280;59602;52.142;5.408;2022-12-20T05:13:39;101278.13;;;8.57;100.00
71764;BME280;59602;52.142;5.408;2022-12-20T05:16:06;101276.22;;;8.58;100.00
71764;BME280;59602;52.142;5.408;2022-12-20T05:18:33;101268.88;;;8.58;100.00
71764;BME280;59602;52.142;5.408;2022-12-20T05:21:00;101257.69;;;8.60;100.00
71764;BME280;59602;52.142;5.408;2022-12-20T05:23:46;101264.22;;;8.59;100.00
71764;BME280;59602;52.142;5.408;2022-12-20T05:26:33;101256.09;;;8.59;100.00
71764;BME280;59602;52.142;5.408;2022-12-20T05:29:02;101254.53;;;8.58;100.00
71764;BME280;59602;52.142;5.408;2022-12-20T05:31:28;101247.28;;;8.62;100.00
71764;BME280;59602;52.142;5.408;2022-12-20T05:33:55;101239.50;;;8.60;100.00
71764;BME280;59602;52.142;5.408;2022-12-20T05:36:22;101242.56;;;8.59;100.00
71764;BME280;59602;52.142;5.408;2022-12-20T05:38:48;101249.13;;;8.58;100.00
71764;BME280;59602;52.142;5.408;2022-12-20T05:41:15;101239.41;;;8.57;100.00
71764;BME280;59602;52.142;5.408;2022-12-20T05:43:42;101237.06;;;8.55;100.00
71764;BME280;59602;52.142;5.408;2022-12-20T05:46:09;101236.34;;;8.58;100.00
71764;BME280;59602;52.142;5.408;2022-12-20T05:48:36;101233.66;;;8.58;100.00
71764;BME280;59602;52.142;5.408;2022-12-20T05:51:02;101232.56;;;8.63;100.00
71764;BME280;59602;52.142;5.408;2022-12-20T05:53:29;101234.50;;;8.62;100.00
71764;BME280;59602;52.142;5.408;2022-12-20T05:55:56;101229.09;;;8.62;100.00
71764;BME280;59602;52.142;5.408;2022-12-20T05:58:23;101207.84;;;8.64;100.00
71764;BME280;59602;52.142;5.408;2022-12-20T06:00:49;101205.91;;;8.65;100.00
71764;BME280;59602;52.142;5.408;2022-12-20T06:03:16;101205.56;;;8.66;100.00
71764;BME280;59602;52.142;5.408;2022-12-20T06:05:44;101199.75;;;8.68;100.00
71764;BME280;59602;52.142;5.408;2022-12-20T06:08:11;101192.41;;;8.68;100.00
71764;BME280;59602;52.142;5.408;2022-12-20T06:10:40;101187.41;;;8.70;100.00
71764;BME280;59602;52.142;5.408;2022-12-20T06:13:08;101174.22;;;8.69;100.00
71764;BME280;59602;52.142;5.408;2022-12-20T06:15:36;101179.28;;;8.70;100.00
71764;BME280;59602;52.142;5.408;2022-12-20T06:18:05;101184.69;;;8.70;100.00
71764;BME280;59602;52.142;5.408;2022-12-20T06:20:33;101186.63;;;8.70;100.00
71764;BME280;59602;52.142;5.408;2022-12-20T06:23:01;101190.94;;;8.71;100.00
71764;BME280;59602;52.142;5.408;2022-12-20T06:25:28;101193.63;;;8.71;100.00
71764;BME280;59602;52.142;5.408;2022-12-20T06:27:55;101197.56;;;8.73;100.00
71764;BME280;59602;52.142;5.408;2022-12-20T06:30:24;101195.97;;;8.72;100.00
71764;BME280;59602;52.142;5.408;2022-12-20T06:32:59;101204.09;;;8.72;100.00
71764;BME280;59602;52.142;5.408;2022-12-20T06:35:25;101208.03;;;8.75;100.00
71764;BME280;59602;52.142;5.408;2022-12-20T06:37:52;101210.38;;;8.77;100.00
71764;BME280;59602;52.142;5.408;2022-12-20T06:40:19;101203.03;;;8.77;100.00
71764;BME280;59602;52.142;5.408;2022-12-20T06:42:46;101206.53;;;8.78;100.00
71764;BME280;59602;52.142;5.408;2022-12-20T06:45:13;101202.59;;;8.75;100.00
71764;BME280;59602;52.142;5.408;2022-12-20T06:47:39;101199.97;;;8.79;100.00
71764;BME280;59602;52.142;5.408;2022-12-20T06:50:06;101207.38;;;8.82;100.00
71764;BME280;59602;52.142;5.408;2022-12-20T06:52:33;101200.41;;;8.81;100.00
71764;BME280;59602;52.142;5.408;2022-12-20T06:55:00;101199.25;;;8.82;100.00
71764;BME280;59602;52.142;5.408;2022-12-20T06:57:27;101197.69;;;8.81;100.00
71764;BME280;59602;52.142;5.408;2022-12-20T06:59:53;101201.56;;;8.80;100.00
71764;BME280;59602;52.142;5.408;2022-12-20T07:02:20;101204.25;;;8.80;100.00
71764;BME280;59602;52.142;5.408;2022-12-20T07:04:47;101195.31;;;8.79;100.00
71764;BME280;59602;52.142;5.408;2022-12-20T07:07:15;101198.03;;;8.79;100.00
71764;BME280;59602;52.142;5.408;2022-12-20T07:09:42;101194.19;;;8.80;99.63
71764;BME280;59602;52.142;5.408;2022-12-20T07:12:12;101203.63;;;8.86;99.70
71764;BME280;59602;52.142;5.408;2022-12-20T07:20:47;101198.19;;;8.86;98.76
71764;BME280;59602;52.142;5.408;2022-12-20T07:23:19;101196.25;;;8.87;98.43
71764;BME280;59602;52.142;5.408;2022-12-20T07:25:55;101200.91;;;8.86;98.37
71764;BME280;59602;52.142;5.408;2022-12-20T07:28:23;101193.97;;;8.89;98.49
71764;BME280;59602;52.142;5.408;2022-12-20T07:30:52;101201.72;;;8.90;98.08
71764;BME280;59602;52.142;5.408;2022-12-20T07:33:19;101200.66;;;8.95;97.96
71764;BME280;59602;52.142;5.408;2022-12-20T07:35:48;101196.50;;;9.01;97.71
71764;BME280;59602;52.142;5.408;2022-12-20T07:38:21;101197.72;;;9.04;97.39
71764;BME280;59602;52.142;5.408;2022-12-20T07:40:48;101198.88;;;9.03;97.08
71764;BME280;59602;52.142;5.408;2022-12-20T07:43:15;101205.94;;;9.07;97.02
71764;BME280;59602;52.142;5.408;2022-12-20T07:45:45;101211.72;;;9.06;96.70
71764;BME280;59602;52.142;5.408;2022-12-20T07:48:13;101208.56;;;9.04;96.75
71764;BME280;59602;52.142;5.408;2022-12-20T07:50:45;101206.22;;;9.02;96.73
71764;BME280;59602;52.142;5.408;2022-12-20T07:53:12;101213.56;;;9.02;96.88
71764;BME280;59602;52.142;5.408;2022-12-20T07:55:39;101217.44;;;9.01;97.20
71764;BME280;59602;52.142;5.408;2022-12-20T07:58:09;101221.69;;;9.02;97.51
71764;BME280;59602;52.142;5.408;2022-12-20T08:00:37;101215.50;;;9.01;97.37
71764;BME280;59602;52.142;5.408;2022-12-20T08:03:11;101231.34;;;8.99;97.47
71764;BME280;59602;52.142;5.408;2022-12-20T08:05:41;101225.13;;;8.99;97.58
71764;BME280;59602;52.142;5.408;2022-12-20T08:08:09;101220.56;;;9.03;97.55
71764;BME280;59602;52.142;5.408;2022-12-20T08:10:37;101226.34;;;9.01;97.53
71764;BME280;59602;52.142;5.408;2022-12-20T08:13:05;101214.72;;;9.01;97.88
71764;BME280;59602;52.142;5.408;2022-12-20T08:15:33;101206.94;;;8.99;98.13
71764;BME280;59602;52.142;5.408;2022-12-20T08:18:00;101195.72;;;9.01;97.85
71764;BME280;59602;52.142;5.408;2022-12-20T08:20:27;101204.59;;;8.98;97.88
71764;BME280;59602;52.142;5.408;2022-12-20T08:22:54;101203.78;;;8.97;97.78
71764;BME280;59602;52.142;5.408;2022-12-20T08:25:20;101205.72;;;8.97;98.24
71764;BME280;59602;52.142;5.408;2022-12-20T08:27:47;101210.38;;;8.96;98.22
71764;BME280;59602;52.142;5.408;2022-12-20T08:30:15;101210.81;;;8.98;97.91
71764;BME280;59602;52.142;5.408;2022-12-20T08:32:42;101199.94;;;8.98;97.91
71764;BME280;59602;52.142;5.408;2022-12-20T08:35:09;101208.09;;;8.98;97.73
71764;BME280;59602;52.142;5.408;2022-12-20T08:37:36;101206.16;;;8.99;98.06
71764;BME280;59602;52.142;5.408;2022-12-20T08:40:03;101198.78;;;8.99;97.88
71764;BME280;59602;52.142;5.408;2022-12-20T08:42:29;101204.22;;;8.99;97.66
71764;BME280;59602;52.142;5.408;2022-12-20T08:44:56;101197.59;;;8.97;97.56
71764;BME280;59602;52.142;5.408;2022-12-20T08:47:23;101205.72;;;8.97;97.89
71764;BME280;59602;52.142;5.408;2022-12-20T08:49:49;101204.22;;;8.99;97.52
71764;BME280;59602;52.142;5.408;2022-12-20T08:52:16;101206.59;;;9.01;97.70
71764;BME280;59602;52.142;5.408;2022-12-20T08:54:43;101202.28;;;9.00;97.53
71764;BME280;59602;52.142;5.408;2022-12-20T08:57:09;101197.66;;;9.00;97.60
71764;BME280;59602;52.142;5.408;2022-12-20T08:59:36;101210.84;;;9.02;97.37
71764;BME280;59602;52.142;5.408;2022-12-20T09:02:03;101201.22;;;9.04;97.64
71764;BME280;59602;52.142;5.408;2022-12-20T09:04:31;101202.38;;;9.03;97.51
71764;BME280;59602;52.142;5.408;2022-12-20T09:06:58;101209.38;;;9.04;97.86
71764;BME280;59602;52.142;5.408;2022-12-20T09:09:24;101208.94;;;9.02;97.86
71764;BME280;59602;52.142;5.408;2022-12-20T09:11:51;101200.72;;;8.99;98.42
71764;BME280;59602;52.142;5.408;2022-12-20T09:14:18;101199.94;;;8.98;98.46
71764;BME280;59602;52.142;5.408;2022-12-20T09:16:44;101198.38;;;8.97;98.92
71764;BME280;59602;52.142;5.408;2022-12-20T09:19:13;101208.78;;;8.95;98.92
71764;BME280;59602;52.142;5.408;2022-12-20T09:21:40;101204.53;;;8.94;99.00
71764;BME280;59602;52.142;5.408;2022-12-20T09:24:08;101211.88;;;8.93;99.30
71764;BME280;59602;52.142;5.408;2022-12-20T09:26:35;101199.88;;;8.94;99.50
71764;BME280;59602;52.142;5.408;2022-12-20T09:29:02;101196.03;;;8.96;99.54
71764;BME280;59602;52.142;5.408;2022-12-20T09:31:29;101194.44;;;8.94;99.55
71764;BME280;59602;52.142;5.408;2022-12-20T09:33:57;101190.63;;;8.96;99.54
71764;BME280;59602;52.142;5.408;2022-12-20T09:36:26;101208.00;;;8.94;99.72
71764;BME280;59602;52.142;5.408;2022-12-20T09:38:54;101207.22;;;8.94;100.00
71764;BME280;59602;52.142;5.408;2022-12-20T09:41:32;101208.38;;;8.93;100.00
71764;BME280;59602;52.142;5.408;2022-12-20T09:44:09;101212.22;;;8.92;100.00
71764;BME280;59602;52.142;5.408;2022-12-20T09:46:38;101218.09;;;8.94;100.00
71764;BME280;59602;52.142;5.408;2022-12-20T09:49:07;101215.38;;;8.94;100.00
71764;BME280;59602;52.142;5.408;2022-12-20T09:51:52;101215.38;;;8.94;100.00
71764;BME280;59602;52.142;5.408;2022-12-20T09:59:26;101222.00;;;8.97;100.00
71764;BME280;59602;52.142;5.408;2022-12-20T10:01:53;101215.78;;;8.96;100.00
71764;BME280;59602;52.142;5.408;2022-12-20T10:04:28;101221.22;;;8.96;100.00
71764;BME280;59602;52.142;5.408;2022-12-20T10:07:32;101212.75;;;8.98;100.00
71764;BME280;59602;52.142;5.408;2022-12-20T10:10:14;101212.75;;;8.98;100.00
71764;BME280;59602;52.142;5.408;2022-12-20T10:13:05;101204.59;;;8.98;100.00
71764;BME280;59602;52.142;5.408;2022-12-20T10:15:52;101205.81;;;9.00;100.00
71764;BME280;59602;52.142;5.408;2022-12-20T10:21:27;101212.00;;;9.01;100.00
71764;BME280;59602;52.142;5.408;2022-12-20T10:24:00;101195.38;;;9.02;100.00
71764;BME280;59602;52.142;5.408;2022-12-20T10:26:28;101191.88;;;9.02;100.00
71764;BME280;59602;52.142;5.408;2022-12-20T10:29:45;101192.28;;;9.04;100.00
71764;BME280;59602;52.142;5.408;2022-12-20T10:32:17;101192.72;;;9.06;100.00
71764;BME280;59602;52.142;5.408;2022-12-20T10:37:22;101196.63;;;9.08;100.00
71764;BME280;59602;52.142;5.408;2022-12-20T10:39:51;101184.31;;;9.11;100.00
71764;BME280;59602;52.142;5.408;2022-12-20T10:42:24;101194.00;;;9.12;100.00
71764;BME280;59602;52.142;5.408;2022-12-20T10:44:52;101184.31;;;9.11;100.00
71764;BME280;59602;52.142;5.408;2022-12-20T10:47:28;101183.50;;;9.10;100.00
71764;BME280;59602;52.142;5.408;2022-12-20T10:50:17;101181.59;;;9.11;100.00
71764;BME280;59602;52.142;5.408;2022-12-20T10:52:45;101184.31;;;9.11;100.00
71764;BME280;59602;52.142;5.408;2022-12-20T10:55:34;101180.44;;;9.12;100.00
71764;BME280;59602;52.142;5.408;2022-12-20T10:58:11;101183.56;;;9.14;100.00
71764;BME280;59602;52.142;5.408;2022-12-20T11:00:42;101168.50;;;9.17;100.00
71764;BME280;59602;52.142;5.408;2022-12-20T11:03:25;101164.28;;;9.19;100.00
71764;BME280;59602;52.142;5.408;2022-12-20T11:05:58;101165.84;;;9.20;100.00
71764;BME280;59602;52.142;5.408;2022-12-20T11:08:28;101160.78;;;9.19;100.00
71764;BME280;59602;52.142;5.408;2022-12-20T11:11:16;101168.16;;;9.18;100.00
71764;BME280;59602;52.142;5.408;2022-12-20T11:13:45;101161.13;;;9.17;100.00
71764;BME280;59602;52.142;5.408;2022-12-20T11:16:28;101167.38;;;9.18;100.00
71764;BME280;59602;52.142;5.408;2022-12-20T11:21:57;101165.47;;;9.22;100.00
71764;BME280;59602;52.142;5.408;2022-12-20T11:24:34;101154.28;;;9.23;100.00
71764;BME280;59602;52.142;5.408;2022-12-20T11:27:15;101152.34;;;9.24;100.00
71764;BME280;59602;52.142;5.408;2022-12-20T11:29:51;101152.34;;;9.24;100.00
71764;BME280;59602;52.142;5.408;2022-12-20T11:32:41;101160.13;;;9.25;100.00
71764;BME280;59602;52.142;5.408;2022-12-20T11:35:21;101151.22;;;9.25;100.00
71764;BME280;59602;52.142;5.408;2022-12-20T11:43:23;101146.97;;;9.27;100.00
71764;BME280;59602;52.142;5.408;2022-12-20T11:46:08;101145.78;;;9.25;100.00
71764;BME280;59602;52.142;5.408;2022-12-20T11:49:00;101151.63;;;9.27;100.00
71764;BME280;59602;52.142;5.408;2022-12-20T11:54:13;101145.81;;;9.28;100.00
71764;BME280;59602;52.142;5.408;2022-12-20T11:56:43;101148.97;;;9.30;100.00
71764;BME280;59602;52.142;5.408;2022-12-20T12:01:54;101148.59;;;9.32;100.00
71764;BME280;59602;52.142;5.408;2022-12-20T12:04:29;101145.88;;;9.32;100.00
71764;BME280;59602;52.142;5.408;2022-12-20T12:07:03;101150.53;;;9.31;100.00
71764;BME280;59602;52.142;5.408;2022-12-20T12:10:00;101145.88;;;9.32;100.00
71764;BME280;59602;52.142;5.408;2022-12-20T12:12:36;101138.19;;;9.34;100.00
71764;BME280;59602;52.142;5.408;2022-12-20T12:17:53;101140.56;;;9.39;100.00
71764;BME280;59602;52.142;5.408;2022-12-20T12:23:46;101135.16;;;9.39;100.00
71764;BME280;59602;52.142;5.408;2022-12-20T12:26:31;101128.16;;;9.38;100.00
71764;BME280;59602;52.142;5.408;2022-12-20T12:32:31;101132.06;;;9.41;100.00
71764;BME280;59602;52.142;5.408;2022-12-20T12:35:11;101131.34;;;9.44;100.00
71764;BME280;59602;52.142;5.408;2022-12-20T12:37:53;101127.09;;;9.46;100.00
71764;BME280;59602;52.142;5.408;2022-12-20T12:40:37;101127.50;;;9.45;100.00
71764;BME280;59602;52.142;5.408;2022-12-20T12:43:44;101126.75;;;9.48;100.00
71764;BME280;59602;52.142;5.408;2022-12-20T12:46:15;101125.19;;;9.47;100.00
71764;BME280;59602;52.142;5.408;2022-12-20T12:48:50;101130.63;;;9.47;100.00
71764;BME280;59602;52.142;5.408;2022-12-20T12:51:25;101134.13;;;9.47;100.00
71764;BME280;59602;52.142;5.408;2022-12-20T12:54:01;101133.75;;;9.49;100.00
71764;BME280;59602;52.142;5.408;2022-12-20T12:56:35;101135.66;;;9.48;100.00
71764;BME280;59602;52.142;5.408;2022-12-20T13:01:54;101145.34;;;9.46;100.00
71764;BME280;59602;52.142;5.408;2022-12-20T13:04:26;101138.34;;;9.45;100.00
71764;BME280;59602;52.142;5.408;2022-12-20T13:06:56;101141.84;;;9.45;100.00
71764;BME280;59602;52.142;5.408;2022-12-20T13:11:55;101141.09;;;9.48;100.00
71764;BME280;59602;52.142;5.408;2022-12-20T13:19:51;101136.47;;;9.49;100.00
71764;BME280;59602;52.142;5.408;2022-12-20T13:22:20;101127.16;;;9.50;100.00
71764;BME280;59602;52.142;5.408;2022-12-20T13:24:58;101129.88;;;9.50;100.00
71764;BME280;59602;52.142;5.408;2022-12-20T13:27:33;101132.97;;;9.48;100.00
71764;BME280;59602;52.142;5.408;2022-12-20T13:37:59;101130.25;;;9.48;100.00
71764;BME280;59602;52.142;5.408;2022-12-20T13:45:46;101129.47;;;9.48;100.00
71764;BME280;59602;52.142;5.408;2022-12-20T13:48:17;101129.88;;;9.50;100.00
71764;BME280;59602;52.142;5.408;2022-12-20T13:50:52;101126.41;;;9.49;100.00
71764;BME280;59602;52.142;5.408;2022-12-20T13:53:21;101130.63;;;9.47;100.00
71764;BME280;59602;52.142;5.408;2022-12-20T13:55:48;101125.63;;;9.49;100.00
71764;BME280;59602;52.142;5.408;2022-12-20T14:00:45;101122.09;;;9.48;100.00
71764;BME280;59602;52.142;5.408;2022-12-20T14:03:24;101126.41;;;9.49;100.00
71764;BME280;59602;52.142;5.408;2022-12-20T14:05:58;101127.94;;;9.50;100.00
71764;BME280;59602;52.142;5.408;2022-12-20T14:08:28;101140.38;;;9.51;100.00
71764;BME280;59602;52.142;5.408;2022-12-20T14:13:57;101130.31;;;9.52;100.00
71764;BME280;59602;52.142;5.408;2022-12-20T14:16:30;101124.13;;;9.55;100.00
71764;BME280;59602;52.142;5.408;2022-12-20T14:19:03;101125.72;;;9.56;100.00
71764;BME280;59602;52.142;5.408;2022-12-20T14:21:44;101125.34;;;9.57;100.00
71764;BME280;59602;52.142;5.408;2022-12-20T14:24:16;101127.69;;;9.59;100.00
71764;BME280;59602;52.142;5.408;2022-12-20T14:26:45;101122.25;;;9.59;100.00
71764;BME280;59602;52.142;5.408;2022-12-20T14:29:17;101130.41;;;9.59;100.00
71764;BME280;59602;52.142;5.408;2022-12-20T14:31:48;101134.72;;;9.60;100.00
71764;BME280;59602;52.142;5.408;2022-12-20T14:34:24;101137.41;;;9.60;100.00